createdAt,value
2017-11-22T00:01:05.258Z,9.30
2017-11-22T00:03:33.125Z,9.30
2017-11-22T00:06:00.992Z,9.30
2017-11-22T00:08:28.859Z,9.30
2017-11-22T00:10:56.726Z,9.20
2017-11-22T00:13:24.592Z,9.20
2017-11-22T00:15:52.461Z,9.20
2017-11-22T00:18:20.260Z,9.20
2017-11-22T00:20:48.912Z,9.30
2017-11-22T00:23:16.780Z,9.30
2017-11-22T00:25:44.647Z,9.30
2017-11-22T00:28:12.514Z,9.40
2017-11-22T00:30:40.381Z,9.40
2017-11-22T00:33:08.249Z,9.40
2017-11-22T00:35:36.116Z,9.40
2017-11-22T00:38:03.984Z,9.40
2017-11-22T00:40:31.853Z,9.40
2017-11-22T00:42:59.717Z,9.50
2017-11-22T00:45:27.587Z,9.50
2017-11-22T00:47:55.452Z,9.50
2017-11-22T00:50:23.326Z,9.50
2017-11-22T00:52:51.187Z,9.50
2017-11-22T00:55:19.054Z,9.50
2017-11-22T00:57:46.922Z,9.50
2017-11-22T01:00:14.788Z,9.50
2017-11-22T01:02:42.656Z,9.50
2017-11-22T01:05:10.523Z,9.50
2017-11-22T01:07:38.391Z,9.60
2017-11-22T01:10:06.258Z,9.60
2017-11-22T01:12:34.125Z,9.70
2017-11-22T01:15:01.992Z,9.70
2017-11-22T01:17:29.860Z,9.80
2017-11-22T01:19:57.727Z,9.80
2017-11-22T01:22:25.595Z,9.80
2017-11-22T01:24:53.462Z,9.80
2017-11-22T01:27:21.334Z,9.80
2017-11-22T01:29:49.206Z,9.80
2017-11-22T01:32:17.066Z,9.70
2017-11-22T01:34:44.935Z,9.80
2017-11-22T01:37:12.803Z,9.80
2017-11-22T01:39:40.775Z,9.80
2017-11-22T01:42:08.638Z,9.90
2017-11-22T01:44:36.504Z,9.90
2017-11-22T01:47:04.370Z,9.80
2017-11-22T01:49:32.238Z,9.80
2017-11-22T01:52:00.105Z,9.80
2017-11-22T01:54:27.972Z,9.80
2017-11-22T01:59:30.670Z,9.70
2017-11-22T02:01:58.537Z,9.80
2017-11-22T02:04:26.404Z,9.70
2017-11-22T02:06:54.272Z,9.70
2017-11-22T02:09:22.138Z,9.70
2017-11-22T02:11:50.012Z,9.70
2017-11-22T02:14:18.691Z,9.60
2017-11-22T02:16:46.561Z,9.60
2017-11-22T02:19:14.427Z,9.60
2017-11-22T02:21:42.295Z,9.60
2017-11-22T02:24:10.163Z,9.50
2017-11-22T02:26:38.030Z,9.40
2017-11-22T02:29:05.898Z,9.40
2017-11-22T02:31:33.867Z,9.40
2017-11-22T02:34:01.735Z,9.40
2017-11-22T02:36:29.602Z,9.40
2017-11-22T02:38:57.469Z,9.30
2017-11-22T02:41:25.336Z,9.40
2017-11-22T02:43:53.204Z,9.40
2017-11-22T02:46:21.072Z,9.40
2017-11-22T02:48:48.942Z,9.40
2017-11-22T02:51:16.804Z,9.50
2017-11-22T02:53:44.673Z,9.50
2017-11-22T02:56:12.540Z,9.50
2017-11-22T02:58:40.412Z,9.50
2017-11-22T03:01:08.274Z,9.40
2017-11-22T03:03:36.141Z,9.40
2017-11-22T03:06:04.009Z,9.40
2017-11-22T03:08:31.879Z,9.40
2017-11-22T03:10:59.742Z,9.40
2017-11-22T03:13:27.611Z,9.40
2017-11-22T03:15:55.478Z,9.40
2017-11-22T03:18:23.346Z,9.50
2017-11-22T03:20:51.213Z,9.40
2017-11-22T03:23:19.080Z,9.40
2017-11-22T03:25:46.948Z,9.40
2017-11-22T03:28:14.816Z,9.50
2017-11-22T03:30:42.683Z,9.50
2017-11-22T03:33:10.550Z,9.60
2017-11-22T03:35:38.418Z,9.70
2017-11-22T03:38:06.284Z,9.70
2017-11-22T03:40:34.152Z,9.70
2017-11-22T03:43:02.020Z,9.70
2017-11-22T03:45:29.885Z,9.70
2017-11-22T03:47:57.755Z,9.70
2017-11-22T03:50:31.357Z,9.70
2017-11-22T03:53:04.753Z,9.70
2017-11-22T03:55:32.723Z,9.70
2017-11-22T03:58:06.425Z,9.70
2017-11-22T04:00:34.293Z,9.70
2017-11-22T04:03:07.789Z,9.60
2017-11-22T04:05:38.370Z,9.70
2017-11-22T04:08:08.752Z,9.60
2017-11-22T04:10:39.315Z,9.60
2017-11-22T04:13:07.968Z,9.60
2017-11-22T04:15:35.834Z,9.60
2017-11-22T04:18:03.708Z,9.60
2017-11-22T04:20:37.406Z,9.50
2017-11-22T04:23:05.272Z,9.50
2017-11-22T04:25:33.141Z,9.50
2017-11-22T04:28:01.010Z,9.50
2017-11-22T04:30:28.874Z,9.50
2017-11-22T04:32:56.742Z,9.50
2017-11-22T04:35:24.610Z,9.50
2017-11-22T04:37:52.476Z,9.50
2017-11-22T04:40:20.345Z,9.50
2017-11-22T04:42:48.210Z,9.50
2017-11-22T04:45:16.188Z,9.40
2017-11-22T04:47:44.146Z,9.40
2017-11-22T04:50:12.017Z,9.40
2017-11-22T04:52:39.889Z,9.40
2017-11-22T04:55:07.759Z,9.40
2017-11-22T04:57:35.625Z,9.40
2017-11-22T05:00:03.598Z,9.40
2017-11-22T05:02:31.460Z,9.40
2017-11-22T05:04:59.427Z,9.40
2017-11-22T05:07:27.293Z,9.40
2017-11-22T05:09:55.169Z,9.40
2017-11-22T05:12:23.028Z,9.30
2017-11-22T05:14:50.904Z,9.30
2017-11-22T05:17:18.763Z,9.30
2017-11-22T05:19:46.630Z,9.30
2017-11-22T05:22:14.497Z,9.30
2017-11-22T05:24:42.294Z,9.30
2017-11-22T05:27:10.949Z,9.20
2017-11-22T05:29:38.815Z,9.20
2017-11-22T05:32:06.683Z,9.20
2017-11-22T05:34:34.552Z,9.20
2017-11-22T05:37:02.351Z,9.20
2017-11-22T05:39:31.002Z,9.30
2017-11-22T05:41:58.870Z,9.20
2017-11-22T05:44:26.737Z,9.30
2017-11-22T05:46:54.605Z,9.30
2017-11-22T05:49:22.471Z,9.30
2017-11-22T05:51:50.339Z,9.40
2017-11-22T05:54:18.205Z,9.30
2017-11-22T05:56:46.074Z,9.30
2017-11-22T05:59:13.941Z,9.40
2017-11-22T06:01:41.808Z,9.30
2017-11-22T06:04:09.675Z,9.30
2017-11-22T06:06:37.542Z,9.30
2017-11-22T06:09:05.411Z,9.30
2017-11-22T06:11:33.278Z,9.30
2017-11-22T06:14:02.066Z,9.30
2017-11-22T06:16:29.934Z,9.30
2017-11-22T06:18:57.800Z,9.30
2017-11-22T06:21:25.668Z,9.20
2017-11-22T06:23:53.536Z,9.20
2017-11-22T06:26:21.402Z,9.20
2017-11-22T06:28:49.271Z,9.20
2017-11-22T06:31:17.136Z,9.20
2017-11-22T06:33:45.005Z,9.10
2017-11-22T06:36:12.871Z,9.10
2017-11-22T06:38:40.739Z,9.10
2017-11-22T06:41:08.606Z,9.10
2017-11-22T06:43:36.474Z,9.10
2017-11-22T06:46:04.340Z,9.10
2017-11-22T06:48:32.208Z,9.10
2017-11-22T06:51:00.076Z,9.10
2017-11-22T06:53:27.944Z,9.10
2017-11-22T06:55:55.810Z,9.20
2017-11-22T06:58:23.677Z,9.10
2017-11-22T07:00:51.546Z,9.10
2017-11-22T07:03:25.083Z,9.10
2017-11-22T07:05:53.730Z,9.20
2017-11-22T07:08:21.598Z,9.10
2017-11-22T07:10:49.465Z,9.10
2017-11-22T07:13:17.335Z,9.10
2017-11-22T07:15:45.199Z,9.20
2017-11-22T07:18:13.066Z,9.20
2017-11-22T07:20:40.938Z,9.20
2017-11-22T07:23:08.802Z,9.20
2017-11-22T07:25:36.669Z,9.20
2017-11-22T07:28:04.536Z,9.20
2017-11-22T07:30:32.414Z,9.20
2017-11-22T07:33:00.271Z,9.20
2017-11-22T07:35:33.770Z,9.10
2017-11-22T07:38:02.458Z,9.20
2017-11-22T07:40:30.324Z,9.20
2017-11-22T07:42:58.191Z,9.10
2017-11-22T07:45:26.058Z,9.00
2017-11-22T07:47:59.661Z,8.90
2017-11-22T07:50:27.528Z,8.90
2017-11-22T07:52:55.399Z,8.80
2017-11-22T07:55:23.979Z,8.70
2017-11-22T07:57:51.846Z,8.60
2017-11-22T08:00:19.713Z,8.60
2017-11-22T08:02:53.358Z,8.60
2017-11-22T08:05:21.187Z,8.50
2017-11-22T08:07:49.055Z,8.60
2017-11-22T08:10:16.927Z,8.60
2017-11-22T08:12:44.791Z,8.60
2017-11-22T08:15:12.657Z,8.70
2017-11-22T08:17:40.523Z,8.80
2017-11-22T08:20:08.390Z,8.80
2017-11-22T08:22:36.257Z,8.90
2017-11-22T08:25:08.122Z,9.00
2017-11-22T08:27:35.982Z,9.20
2017-11-22T08:30:03.850Z,9.30
2017-11-22T08:32:31.730Z,9.40
2017-11-22T08:34:59.584Z,9.60
2017-11-22T08:37:27.452Z,9.90
2017-11-22T08:39:55.324Z,10.40
2017-11-22T08:42:28.921Z,11.10
2017-11-22T08:44:56.789Z,11.40
2017-11-22T08:47:24.655Z,11.90
2017-11-22T08:49:52.523Z,12.30
2017-11-22T08:52:20.390Z,13.00
2017-11-22T08:54:53.788Z,13.70
2017-11-22T08:57:27.216Z,13.90
2017-11-22T09:00:01.441Z,13.30
2017-11-22T09:02:30.086Z,13.10
2017-11-22T09:04:57.955Z,13.00
2017-11-22T09:07:25.822Z,13.40
2017-11-22T09:09:53.689Z,14.10
2017-11-22T09:12:27.291Z,14.90
2017-11-22T09:14:55.156Z,15.30
2017-11-22T09:17:23.025Z,15.70
2017-11-22T09:19:50.892Z,15.40
2017-11-22T09:22:18.769Z,15.60
2017-11-22T09:24:52.092Z,16.00
2017-11-22T09:27:26.270Z,17.30
2017-11-22T09:29:56.833Z,17.20
2017-11-22T09:32:31.017Z,18.10
2017-11-22T09:35:04.430Z,18.10
2017-11-22T09:37:33.103Z,17.70
2017-11-22T09:40:00.968Z,17.70
2017-11-22T09:42:30.687Z,17.30
2017-11-22T09:44:58.544Z,17.10
2017-11-22T09:47:26.412Z,17.60
2017-11-22T09:49:54.282Z,18.00
2017-11-22T09:54:56.155Z,18.60
2017-11-22T09:57:23.955Z,18.00
2017-11-22T09:59:52.506Z,16.80
2017-11-22T10:02:20.374Z,16.80
2017-11-22T10:04:48.241Z,16.90
2017-11-22T10:07:16.109Z,17.00
2017-11-22T10:09:43.976Z,16.80
2017-11-22T10:12:11.842Z,17.00
2017-11-22T10:14:39.710Z,17.50
2017-11-22T10:17:12.601Z,17.80
2017-11-22T10:19:44.354Z,17.60
2017-11-22T10:22:12.223Z,17.40
2017-11-22T10:24:45.042Z,17.70
2017-11-22T10:27:19.330Z,18.70
2017-11-22T10:29:47.190Z,18.70
2017-11-22T10:32:20.999Z,19.00
2017-11-22T10:34:48.864Z,19.30
2017-11-22T10:37:16.732Z,19.00
2017-11-22T10:39:44.599Z,19.00
2017-11-22T10:42:12.466Z,19.10
2017-11-22T10:44:40.333Z,18.80
2017-11-22T10:47:08.203Z,18.90
2017-11-22T10:49:36.068Z,19.10
2017-11-22T10:52:03.936Z,18.90
2017-11-22T10:54:31.803Z,18.40
2017-11-22T10:56:59.669Z,18.00
2017-11-22T10:59:27.537Z,17.70
2017-11-22T11:01:55.405Z,17.10
2017-11-22T11:04:23.272Z,16.80
2017-11-22T11:06:51.138Z,16.10
2017-11-22T11:09:19.007Z,15.80
2017-11-22T11:11:46.881Z,15.70
2017-11-22T11:14:14.740Z,15.60
2017-11-22T11:16:42.608Z,15.30
2017-11-22T11:19:10.475Z,15.70
2017-11-22T11:21:38.342Z,16.10
2017-11-22T11:24:06.220Z,16.50
2017-11-22T11:26:34.081Z,17.00
2017-11-22T11:29:01.947Z,16.50
2017-11-22T11:31:29.815Z,16.30
2017-11-22T11:33:57.690Z,16.10
2017-11-22T11:36:32.315Z,15.80
2017-11-22T11:39:00.176Z,15.70
2017-11-22T11:41:28.042Z,16.10
2017-11-22T11:43:55.909Z,16.70
2017-11-22T11:46:23.775Z,16.90
2017-11-22T11:48:51.642Z,17.50
2017-11-22T11:51:19.510Z,17.80
2017-11-22T11:53:47.379Z,18.00
2017-11-22T11:56:15.244Z,17.80
2017-11-22T11:58:43.112Z,18.00
2017-11-22T12:01:10.979Z,18.20
2017-11-22T12:03:38.850Z,18.40
2017-11-22T12:06:06.712Z,18.30
2017-11-22T12:08:34.580Z,19.10
2017-11-22T12:11:02.447Z,19.70
2017-11-22T12:13:30.315Z,19.90
2017-11-22T12:15:58.181Z,19.80
2017-11-22T12:18:26.048Z,19.60
2017-11-22T12:20:53.919Z,19.40
2017-11-22T12:23:24.478Z,19.50
2017-11-22T12:25:52.315Z,19.60
2017-11-22T12:28:20.182Z,19.90
2017-11-22T12:30:48.049Z,20.30
2017-11-22T12:33:15.916Z,20.50
2017-11-22T12:35:43.790Z,20.70
2017-11-22T12:38:11.650Z,21.10
2017-11-22T12:40:39.517Z,21.70
2017-11-22T12:43:07.385Z,21.90
2017-11-22T12:45:35.252Z,21.70
2017-11-22T12:48:03.126Z,21.20
2017-11-22T12:50:30.988Z,20.70
2017-11-22T12:52:58.855Z,20.60
2017-11-22T12:55:26.729Z,20.30
2017-11-22T12:57:54.590Z,20.20
2017-11-22T13:00:22.559Z,19.90
2017-11-22T13:02:50.425Z,20.20
2017-11-22T13:05:18.294Z,20.10
2017-11-22T13:07:46.162Z,19.90
2017-11-22T13:10:28.806Z,19.60
2017-11-22T13:12:59.202Z,19.80
2017-11-22T13:15:27.069Z,19.80
2017-11-22T13:17:54.936Z,20.00
2017-11-22T13:20:22.807Z,19.80
2017-11-22T13:22:50.594Z,19.90
2017-11-22T13:25:18.438Z,20.20
2017-11-22T13:27:46.303Z,20.70
2017-11-22T13:30:14.169Z,20.10
2017-11-22T13:32:42.037Z,20.10
2017-11-22T13:35:09.904Z,19.60
2017-11-22T13:37:37.983Z,20.00
2017-11-22T13:40:05.946Z,20.40
2017-11-22T13:42:33.813Z,19.70
2017-11-22T13:45:01.681Z,18.80
2017-11-22T13:47:30.268Z,17.30
2017-11-22T13:49:58.132Z,17.30
2017-11-22T13:52:25.999Z,17.30
2017-11-22T13:54:53.867Z,18.00
2017-11-22T13:57:21.767Z,18.50
2017-11-22T13:59:49.704Z,18.40
2017-11-22T14:02:17.571Z,17.80
2017-11-22T14:04:45.438Z,17.20
2017-11-22T14:07:13.307Z,16.80
2017-11-22T14:09:41.178Z,16.50
2017-11-22T14:12:09.145Z,16.20
2017-11-22T14:14:37.010Z,16.00
2017-11-22T14:17:04.877Z,15.80
2017-11-22T14:19:32.748Z,15.60
2017-11-22T14:22:00.613Z,15.50
2017-11-22T14:24:28.481Z,15.30
2017-11-22T14:26:56.348Z,15.10
2017-11-22T14:29:24.213Z,14.90
2017-11-22T14:31:52.085Z,14.70
2017-11-22T14:34:19.949Z,14.50
2017-11-22T14:36:47.815Z,14.40
2017-11-22T14:39:15.660Z,14.30
2017-11-22T14:41:43.551Z,14.10
2017-11-22T14:44:11.524Z,14.00
2017-11-22T14:46:39.393Z,13.90
2017-11-22T14:49:07.360Z,13.70
2017-11-22T14:51:35.226Z,13.60
2017-11-22T14:54:03.097Z,13.50
2017-11-22T14:56:30.964Z,13.40
2017-11-22T14:58:58.935Z,13.40
2017-11-22T15:01:26.901Z,13.30
2017-11-22T15:03:54.771Z,13.20
2017-11-22T15:06:22.736Z,13.20
2017-11-22T15:08:50.603Z,13.20
2017-11-22T15:11:18.470Z,13.30
2017-11-22T15:13:46.341Z,13.40
2017-11-22T15:16:14.205Z,13.40
2017-11-22T15:18:42.074Z,13.40
2017-11-22T15:21:09.941Z,13.30
2017-11-22T15:23:37.807Z,13.30
2017-11-22T15:26:05.674Z,13.20
2017-11-22T15:28:33.542Z,13.00
2017-11-22T15:31:01.413Z,13.10
2017-11-22T15:33:29.277Z,13.00
2017-11-22T15:35:57.143Z,12.90
2017-11-22T15:38:25.016Z,12.80
2017-11-22T15:40:52.879Z,12.70
2017-11-22T15:43:20.745Z,12.60
2017-11-22T15:45:48.615Z,12.50
2017-11-22T15:48:16.480Z,12.50
2017-11-22T15:50:44.449Z,12.40
2017-11-22T15:53:12.318Z,12.40
2017-11-22T15:55:40.184Z,12.30
2017-11-22T15:58:08.053Z,12.30
2017-11-22T16:00:35.919Z,12.30
2017-11-22T16:03:03.786Z,12.30
2017-11-22T16:05:31.653Z,12.30
2017-11-22T16:07:59.521Z,12.30
2017-11-22T16:10:27.389Z,12.20
2017-11-22T16:12:55.256Z,12.20
2017-11-22T16:15:23.123Z,12.10
2017-11-22T16:17:50.990Z,12.10
2017-11-22T16:20:18.857Z,12.00
2017-11-22T16:22:46.725Z,11.80
2017-11-22T16:25:14.592Z,11.70
2017-11-22T16:27:42.460Z,11.60
2017-11-22T16:30:10.327Z,11.40
2017-11-22T16:32:38.194Z,11.30
2017-11-22T16:35:06.062Z,11.10
2017-11-22T16:37:33.854Z,10.80
2017-11-22T16:40:01.620Z,10.60
2017-11-22T16:42:29.561Z,10.40
2017-11-22T16:44:57.429Z,10.20
2017-11-22T16:47:25.295Z,9.90
2017-11-22T16:49:53.171Z,9.70
2017-11-22T16:52:21.031Z,9.50
2017-11-22T16:54:48.898Z,9.40
2017-11-22T16:57:16.765Z,9.40
2017-11-22T16:59:44.632Z,9.40
2017-11-22T17:02:12.500Z,9.40
2017-11-22T17:04:40.367Z,9.40
2017-11-22T17:07:08.233Z,9.40
2017-11-22T17:09:36.101Z,9.30
2017-11-22T17:12:03.968Z,9.30
2017-11-22T17:14:31.836Z,9.30
2017-11-22T17:16:59.704Z,9.30
2017-11-22T17:19:27.573Z,9.30
2017-11-22T17:21:55.438Z,9.30
2017-11-22T17:24:23.307Z,9.30
2017-11-22T17:26:51.174Z,9.20
2017-11-22T17:29:19.041Z,9.30
2017-11-22T17:31:46.907Z,9.30
2017-11-22T17:34:14.774Z,9.30
2017-11-22T17:36:42.643Z,9.20
2017-11-22T17:39:10.509Z,9.00
2017-11-22T17:41:38.381Z,8.50
2017-11-22T17:44:06.244Z,8.10
2017-11-22T17:46:34.113Z,7.80
2017-11-22T17:49:01.979Z,7.60
2017-11-22T17:51:29.846Z,7.50
2017-11-22T17:53:57.719Z,7.50
2017-11-22T17:56:25.683Z,7.50
2017-11-22T17:58:53.554Z,7.50
2017-11-22T18:01:21.420Z,7.40
2017-11-22T18:03:49.292Z,7.50
2017-11-22T18:06:17.258Z,7.60
2017-11-22T18:08:45.121Z,7.60
2017-11-22T18:11:12.999Z,7.60
2017-11-22T18:13:40.862Z,7.20
2017-11-22T18:16:08.730Z,7.00
2017-11-22T18:18:36.596Z,6.90
2017-11-22T18:21:04.561Z,7.00
2017-11-22T18:23:32.429Z,7.10
2017-11-22T18:26:00.297Z,7.20
2017-11-22T18:28:28.092Z,7.20
2017-11-22T18:30:56.748Z,6.90
2017-11-22T18:33:24.614Z,6.90
2017-11-22T18:35:52.502Z,6.80
2017-11-22T18:38:20.350Z,6.90
2017-11-22T18:40:48.216Z,6.80
2017-11-22T18:43:16.084Z,6.60
2017-11-22T18:45:43.949Z,6.40
2017-11-22T18:48:11.817Z,6.50
2017-11-22T18:50:39.684Z,6.50
2017-11-22T18:53:07.563Z,6.50
2017-11-22T18:55:35.421Z,6.30
2017-11-22T18:58:03.287Z,6.30
2017-11-22T19:00:31.155Z,6.30
2017-11-22T19:02:59.022Z,6.30
2017-11-22T19:05:26.883Z,6.20
2017-11-22T19:07:55.680Z,6.10
2017-11-22T19:10:23.545Z,6.00
2017-11-22T19:12:51.516Z,6.00
2017-11-22T19:15:19.382Z,5.80
2017-11-22T19:17:47.250Z,5.80
2017-11-22T19:20:15.117Z,5.80
2017-11-22T19:22:42.986Z,5.90
2017-11-22T19:25:10.852Z,6.00
2017-11-22T19:27:38.723Z,6.20
2017-11-22T19:30:06.590Z,6.30
2017-11-22T19:32:34.454Z,6.40
2017-11-22T19:35:02.322Z,6.30
2017-11-22T19:37:30.188Z,6.10
2017-11-22T19:39:58.056Z,6.20
2017-11-22T19:42:25.923Z,6.30
2017-11-22T19:44:53.795Z,6.10
2017-11-22T19:47:21.673Z,6.20
2017-11-22T19:49:51.353Z,6.10
2017-11-22T19:52:19.238Z,6.20
2017-11-22T19:54:47.101Z,6.20
2017-11-22T19:57:14.971Z,6.00
2017-11-22T19:59:42.835Z,5.60
2017-11-22T20:02:10.706Z,5.60
2017-11-22T20:04:38.572Z,5.40
2017-11-22T20:07:18.218Z,5.30
2017-11-22T20:09:46.083Z,5.30
2017-11-22T20:12:13.951Z,5.50
2017-11-22T20:14:41.818Z,5.70
2017-11-22T20:17:09.685Z,5.70
2017-11-22T20:19:37.553Z,5.80
2017-11-22T20:22:05.420Z,5.50
2017-11-22T20:24:33.292Z,5.20
2017-11-22T20:27:01.154Z,5.00
2017-11-22T20:29:29.022Z,4.90
2017-11-22T20:31:56.888Z,4.90
2017-11-22T20:34:24.755Z,5.10
2017-11-22T20:36:52.624Z,5.10
2017-11-22T20:39:20.496Z,5.10
2017-11-22T20:41:48.358Z,4.90
2017-11-22T20:44:16.225Z,4.90
2017-11-22T20:46:44.094Z,4.80
2017-11-22T20:49:11.963Z,4.70
2017-11-22T20:51:39.827Z,4.60
2017-11-22T20:54:07.694Z,4.80
2017-11-22T20:56:35.563Z,4.70
2017-11-22T20:59:03.431Z,4.60
2017-11-22T21:01:31.297Z,4.60
2017-11-22T21:03:59.166Z,4.60
2017-11-22T21:06:27.031Z,4.70
2017-11-22T21:08:54.899Z,4.60
2017-11-22T21:11:22.766Z,4.40
2017-11-22T21:13:50.634Z,4.40
2017-11-22T21:16:18.500Z,4.30
2017-11-22T21:18:46.369Z,4.20
2017-11-22T21:21:14.240Z,4.20
2017-11-22T21:23:42.106Z,4.20
2017-11-22T21:26:09.971Z,4.20
2017-11-22T21:28:37.838Z,4.20
2017-11-22T21:31:05.711Z,4.20
2017-11-22T21:33:33.477Z,4.30
2017-11-22T21:36:01.343Z,4.40
2017-11-22T21:38:29.208Z,4.60
2017-11-22T21:40:57.073Z,4.70
2017-11-22T21:43:24.941Z,4.80
2017-11-22T21:45:52.806Z,4.80
2017-11-22T21:48:20.676Z,4.80
2017-11-22T21:50:48.543Z,4.80
2017-11-22T21:53:16.411Z,4.80
2017-11-22T21:55:44.276Z,4.70
2017-11-22T21:58:12.143Z,4.30
2017-11-22T22:00:40.113Z,4.10
2017-11-22T22:03:07.981Z,4.20
2017-11-22T22:05:35.847Z,4.20
2017-11-22T22:08:03.717Z,4.00
2017-11-22T22:10:31.684Z,3.90
2017-11-22T22:12:59.552Z,4.00
2017-11-22T22:15:27.418Z,3.90
2017-11-22T22:17:55.286Z,3.90
2017-11-22T22:20:23.154Z,3.90
2017-11-22T22:22:51.022Z,4.00
2017-11-22T22:25:18.888Z,4.20
2017-11-22T22:27:46.755Z,4.30
2017-11-22T22:30:14.623Z,4.20
2017-11-22T22:32:42.490Z,4.10
2017-11-22T22:35:10.360Z,3.90
2017-11-22T22:37:38.226Z,3.80
2017-11-22T22:40:06.092Z,3.70
2017-11-22T22:42:33.964Z,3.60
2017-11-22T22:45:01.826Z,3.70
2017-11-22T22:47:29.694Z,3.70
2017-11-22T22:49:57.560Z,3.80
2017-11-22T22:52:25.435Z,3.90
2017-11-22T22:54:53.295Z,4.10
2017-11-22T22:57:21.163Z,4.10
2017-11-22T22:59:49.030Z,4.00
2017-11-22T23:02:16.899Z,4.10
2017-11-22T23:04:44.765Z,3.90
2017-11-22T23:07:12.633Z,3.70
2017-11-22T23:09:40.499Z,3.70
2017-11-22T23:12:08.367Z,3.80
2017-11-22T23:14:36.164Z,3.90
2017-11-22T23:17:04.818Z,3.60
2017-11-22T23:19:32.622Z,3.50
2017-11-22T23:22:00.554Z,3.50
2017-11-22T23:24:28.420Z,3.70
2017-11-22T23:26:56.288Z,3.60
2017-11-22T23:29:24.155Z,3.60
2017-11-22T23:31:52.022Z,3.70
2017-11-22T23:34:19.890Z,3.70
2017-11-22T23:36:47.757Z,3.80
2017-11-22T23:39:15.630Z,3.70
2017-11-22T23:41:43.491Z,3.60
2017-11-22T23:44:11.360Z,3.70
2017-11-22T23:46:39.226Z,3.70
2017-11-22T23:49:07.095Z,3.60
2017-11-22T23:51:34.969Z,3.50
2017-11-22T23:54:02.829Z,3.70
2017-11-22T23:56:30.695Z,3.60
2017-11-22T23:58:58.564Z,3.50
